createdAt,value
2022-12-23T00:00:45.813Z,2.80
2022-12-23T00:03:48.046Z,2.80
2022-12-23T00:06:50.122Z,2.80
2022-12-23T00:09:52.325Z,2.80
2022-12-23T00:13:12.905Z,2.80
2022-12-23T00:16:15.668Z,2.70
2022-12-23T00:19:17.826Z,2.70
2022-12-23T00:22:20.165Z,2.70
2022-12-23T00:25:40.378Z,2.60
2022-12-23T00:28:42.993Z,2.60
2022-12-23T00:31:45.269Z,2.60
2022-12-23T00:34:47.394Z,2.60
2022-12-23T00:37:49.522Z,2.70
2022-12-23T00:41:11.249Z,2.60
2022-12-23T00:44:13.816Z,2.60
2022-12-23T00:47:35.881Z,2.60
2022-12-23T00:50:42.024Z,2.50
2022-12-23T00:53:44.097Z,2.40
2022-12-23T00:56:46.357Z,2.40
2022-12-23T00:59:48.520Z,2.40
2022-12-23T01:03:09.651Z,2.30
2022-12-23T01:06:12.031Z,2.20
2022-12-23T01:09:14.877Z,2.20
2022-12-23T01:12:17.066Z,2.10
2022-12-23T01:15:19.092Z,2.00
2022-12-23T01:18:21.213Z,1.90
2022-12-23T01:21:23.582Z,1.80
2022-12-23T01:24:30.482Z,1.70
2022-12-23T01:27:32.634Z,1.60
2022-12-23T01:30:35.291Z,1.60
2022-12-23T01:33:37.456Z,1.60
2022-12-23T01:36:39.643Z,1.60
2022-12-23T01:39:42.362Z,1.50
2022-12-23T01:42:44.529Z,1.50
2022-12-23T01:45:47.240Z,1.40
2022-12-23T01:48:52.426Z,1.40
2022-12-23T01:51:54.526Z,1.40
2022-12-23T01:54:57.241Z,1.30
2022-12-23T01:58:06.389Z,1.40
2022-12-23T02:01:30.999Z,1.30
2022-12-23T02:04:33.175Z,1.20
2022-12-23T02:07:54.808Z,1.20
2022-12-23T02:11:18.668Z,1.20
2022-12-23T02:14:54.318Z,1.10
2022-12-23T02:18:14.964Z,1.10
2022-12-23T02:21:24.263Z,1.10
2022-12-23T02:24:32.273Z,1.10
2022-12-23T02:27:57.482Z,1.10
2022-12-23T02:31:10.679Z,1.00
2022-12-23T02:34:44.853Z,0.90
2022-12-23T02:38:23.444Z,0.90
2022-12-23T02:41:35.192Z,0.90
2022-12-23T02:44:48.548Z,0.90
2022-12-23T02:47:56.203Z,0.80
2022-12-23T02:51:01.064Z,0.80
2022-12-23T02:54:07.566Z,0.80
2022-12-23T02:57:12.443Z,0.60
2022-12-23T03:00:15.382Z,0.50
2022-12-23T03:03:17.638Z,0.60
2022-12-23T03:06:27.984Z,0.50
2022-12-23T03:09:54.281Z,0.50
2022-12-23T03:13:40.697Z,0.50
2022-12-23T03:17:08.428Z,0.50
2022-12-23T03:20:21.442Z,0.50
2022-12-23T03:23:42.606Z,0.40
2022-12-23T03:26:59.678Z,0.40
2022-12-23T03:30:04.966Z,0.40
2022-12-23T03:33:15.460Z,0.40
2022-12-23T03:36:25.337Z,0.40
2022-12-23T03:39:33.537Z,0.40
2022-12-23T03:42:39.797Z,0.40
2022-12-23T03:45:52.595Z,0.40
2022-12-23T03:49:00.770Z,0.40
2022-12-23T03:52:24.205Z,0.50
2022-12-23T03:55:33.609Z,0.50
2022-12-23T03:58:44.977Z,0.50
2022-12-23T04:02:07.889Z,0.60
2022-12-23T04:05:23.200Z,0.70
2022-12-23T04:08:37.291Z,0.70
2022-12-23T04:11:39.466Z,0.80
2022-12-23T04:14:59.643Z,0.90
2022-12-23T04:18:02.062Z,1.00
2022-12-23T04:21:06.179Z,1.00
2022-12-23T04:24:08.598Z,1.10
2022-12-23T04:27:14.262Z,1.10
2022-12-23T04:30:16.629Z,1.10
2022-12-23T04:33:18.670Z,1.10
2022-12-23T04:36:20.878Z,1.10
2022-12-23T04:39:23.229Z,1.10
2022-12-23T04:42:25.658Z,1.10
2022-12-23T04:45:27.827Z,1.10
2022-12-23T04:48:30.056Z,1.10
2022-12-23T04:51:32.578Z,1.10
2022-12-23T04:54:34.636Z,1.00
2022-12-23T04:57:36.786Z,1.00
2022-12-23T05:00:40.204Z,1.10
2022-12-23T05:03:42.594Z,1.20
2022-12-23T05:06:44.964Z,1.10
2022-12-23T05:09:47.048Z,1.20
2022-12-23T05:12:49.088Z,1.20
2022-12-23T05:15:53.458Z,1.20
2022-12-23T05:18:55.550Z,1.30
2022-12-23T05:21:57.604Z,1.30
2022-12-23T05:24:59.719Z,1.30
2022-12-23T05:28:01.974Z,1.30
2022-12-23T05:31:08.002Z,1.30
2022-12-23T05:34:10.374Z,1.40
2022-12-23T05:37:12.572Z,1.40
2022-12-23T05:40:21.612Z,1.60
2022-12-23T05:43:26.016Z,1.60
2022-12-23T05:46:28.226Z,1.80
2022-12-23T05:49:30.311Z,2.00
2022-12-23T05:52:32.588Z,2.30
2022-12-23T05:55:35.538Z,2.40
2022-12-23T05:58:38.225Z,2.50
2022-12-23T06:01:40.581Z,2.50
2022-12-23T06:04:42.735Z,2.50
2022-12-23T06:07:44.879Z,2.60
2022-12-23T06:10:48.818Z,3.20
2022-12-23T06:13:52.605Z,3.40
2022-12-23T06:16:54.716Z,3.60
2022-12-23T06:19:56.852Z,3.40
2022-12-23T06:22:59.039Z,3.50
2022-12-23T06:26:02.856Z,3.70
2022-12-23T06:29:04.977Z,3.90
2022-12-23T06:32:07.514Z,4.00
2022-12-23T06:35:09.973Z,4.10
2022-12-23T06:38:12.524Z,4.30
2022-12-23T06:41:15.681Z,4.40
2022-12-23T06:44:18.163Z,4.70
2022-12-23T06:47:20.357Z,4.80
2022-12-23T06:50:22.657Z,5.00
2022-12-23T06:53:25.092Z,5.20
2022-12-23T06:56:27.624Z,5.20
2022-12-23T06:59:30.031Z,5.30
2022-12-23T07:02:33.023Z,5.30
2022-12-23T07:05:37.748Z,5.30
2022-12-23T07:08:40.250Z,5.30
2022-12-23T07:11:42.609Z,5.30
2022-12-23T07:14:44.793Z,5.10
2022-12-23T07:17:46.897Z,5.20
2022-12-23T07:20:50.831Z,5.30
2022-12-23T07:23:53.105Z,5.30
2022-12-23T07:26:56.068Z,5.30
2022-12-23T07:29:58.238Z,5.30
2022-12-23T07:33:00.378Z,5.40
2022-12-23T07:36:02.417Z,5.40
2022-12-23T07:39:04.592Z,5.30
2022-12-23T07:42:42.821Z,5.20
2022-12-23T07:45:29.784Z,5.00
2022-12-23T07:48:31.936Z,5.00
2022-12-23T07:51:34.176Z,5.00
2022-12-23T07:54:36.601Z,5.00
2022-12-23T07:57:39.939Z,5.00
2022-12-23T08:00:44.963Z,5.10
2022-12-23T08:03:47.892Z,5.20
2022-12-23T08:06:50.022Z,5.20
2022-12-23T08:09:52.209Z,5.40
2022-12-23T08:12:54.317Z,5.50
2022-12-23T08:16:01.272Z,5.60
2022-12-23T08:19:03.584Z,5.60
2022-12-23T08:22:08.048Z,5.60
2022-12-23T08:25:10.369Z,5.60
2022-12-23T08:28:12.489Z,5.70
2022-12-23T08:31:16.435Z,5.90
2022-12-23T08:34:19.429Z,6.20
2022-12-23T08:37:21.562Z,6.30
2022-12-23T08:40:27.925Z,6.40
2022-12-23T08:43:35.628Z,6.60
2022-12-23T08:46:38.740Z,6.90
2022-12-23T08:49:40.945Z,7.20
2022-12-23T08:52:43.050Z,7.60
2022-12-23T08:55:47.066Z,8.30
2022-12-23T08:58:52.735Z,9.00
2022-12-23T09:01:54.910Z,9.10
2022-12-23T09:04:57.136Z,8.90
2022-12-23T09:08:00.394Z,8.60
2022-12-23T09:11:03.521Z,8.30
2022-12-23T09:14:07.045Z,8.20
2022-12-23T09:17:09.090Z,8.70
2022-12-23T09:20:12.520Z,9.30
2022-12-23T09:23:14.632Z,9.60
2022-12-23T09:26:23.222Z,9.80
2022-12-23T09:29:25.787Z,9.50
2022-12-23T09:32:27.925Z,8.90
2022-12-23T09:35:30.010Z,8.50
2022-12-23T09:38:33.287Z,8.20
2022-12-23T09:42:03.388Z,8.40
2022-12-23T09:45:49.599Z,8.50
2022-12-23T09:49:02.629Z,8.80
2022-12-23T09:52:09.247Z,8.80
2022-12-23T09:55:12.988Z,8.70
2022-12-23T09:58:41.213Z,8.70
2022-12-23T10:02:18.781Z,8.80
2022-12-23T10:05:48.196Z,8.90
2022-12-23T10:08:54.114Z,8.80
2022-12-23T10:11:57.162Z,8.70
2022-12-23T10:15:02.593Z,8.60
2022-12-23T10:18:26.661Z,8.60
2022-12-23T10:21:55.911Z,8.90
2022-12-23T10:25:02.109Z,9.10
2022-12-23T10:28:04.458Z,9.10
2022-12-23T10:34:49.511Z,9.30
2022-12-23T10:37:59.881Z,9.40
2022-12-23T10:41:26.706Z,9.60
2022-12-23T10:44:49.596Z,9.70
2022-12-23T10:47:59.258Z,9.90
2022-12-23T10:51:17.783Z,10.10
2022-12-23T10:54:32.181Z,10.20
2022-12-23T10:57:34.357Z,10.50
2022-12-23T11:00:41.366Z,10.60
2022-12-23T11:03:57.940Z,10.70
2022-12-23T11:07:41.525Z,10.90
2022-12-23T11:10:33.141Z,11.00
2022-12-23T11:13:38.423Z,11.10
2022-12-23T11:16:46.257Z,11.40
2022-12-23T11:20:05.590Z,11.60
2022-12-23T11:23:29.106Z,11.90
2022-12-23T11:26:31.314Z,12.10
2022-12-23T11:29:43.738Z,12.30
2022-12-23T11:32:46.023Z,12.50
2022-12-23T11:35:48.402Z,12.60
2022-12-23T11:38:52.087Z,12.70
2022-12-23T11:42:03.549Z,13.20
2022-12-23T11:45:07.646Z,13.80
2022-12-23T11:48:30.446Z,13.80
2022-12-23T11:51:32.849Z,13.80
2022-12-23T11:54:35.018Z,14.20
2022-12-23T11:57:42.639Z,14.10
2022-12-23T12:00:56.516Z,14.60
2022-12-23T12:04:02.790Z,14.60
2022-12-23T12:07:06.876Z,15.00
2022-12-23T12:10:41.017Z,15.40
2022-12-23T12:13:48.493Z,15.30
2022-12-23T12:17:00.757Z,14.70
2022-12-23T12:20:10.818Z,14.60
2022-12-23T12:23:29.465Z,15.10
2022-12-23T12:26:35.014Z,15.70
2022-12-23T12:29:57.448Z,16.20
2022-12-23T12:33:05.540Z,16.70
2022-12-23T12:36:16.087Z,17.20
2022-12-23T12:39:42.381Z,17.10
2022-12-23T12:43:18.808Z,17.50
2022-12-23T12:47:44.493Z,17.90
2022-12-23T12:51:13.936Z,17.90
2022-12-23T12:54:24.517Z,18.00
2022-12-23T12:57:26.817Z,17.00
2022-12-23T13:00:47.129Z,16.90
2022-12-23T13:04:07.338Z,17.00
2022-12-23T13:07:18.566Z,17.50
2022-12-23T13:10:49.297Z,17.80
2022-12-23T13:13:51.320Z,17.60
2022-12-23T13:17:05.431Z,17.20
2022-12-23T13:20:42.787Z,17.30
2022-12-23T13:23:50.471Z,17.10
2022-12-23T13:27:13.613Z,17.70
2022-12-23T13:30:23.831Z,17.30
2022-12-23T13:33:33.594Z,17.20
2022-12-23T13:37:05.590Z,16.80
2022-12-23T13:40:28.213Z,16.70
2022-12-23T13:43:42.060Z,16.50
2022-12-23T13:47:22.508Z,15.90
2022-12-23T13:50:34.426Z,15.40
2022-12-23T13:54:11.619Z,15.50
2022-12-23T13:57:47.564Z,15.20
2022-12-23T14:01:10.391Z,16.00
2022-12-23T14:04:32.480Z,15.30
2022-12-23T14:07:34.946Z,15.20
2022-12-23T14:10:39.153Z,15.40
2022-12-23T14:13:55.252Z,15.30
2022-12-23T14:17:40.920Z,14.80
2022-12-23T14:21:08.060Z,14.20
2022-12-23T14:24:34.617Z,14.10
2022-12-23T14:27:45.612Z,15.00
2022-12-23T14:30:50.245Z,15.50
2022-12-23T14:33:52.457Z,15.10
2022-12-23T14:37:16.508Z,14.80
2022-12-23T14:40:37.414Z,14.70
2022-12-23T14:43:45.767Z,13.90
2022-12-23T14:46:47.848Z,13.40
2022-12-23T14:49:50.446Z,12.70
2022-12-23T14:53:00.772Z,12.20
2022-12-23T14:56:20.656Z,11.80
2022-12-23T14:59:29.352Z,11.30
2022-12-23T15:02:36.552Z,10.80
2022-12-23T15:05:40.552Z,10.40
2022-12-23T15:08:43.762Z,10.10
2022-12-23T15:11:46.391Z,9.70
2022-12-23T15:14:56.465Z,9.50
2022-12-23T15:18:06.798Z,9.40
2022-12-23T15:21:13.337Z,9.30
2022-12-23T15:24:21.800Z,9.30
2022-12-23T15:27:29.427Z,9.20
2022-12-23T15:30:46.060Z,8.90
2022-12-23T15:34:02.887Z,8.80
2022-12-23T15:37:12.183Z,8.60
2022-12-23T15:40:31.935Z,8.40
2022-12-23T15:43:41.328Z,8.30
2022-12-23T15:46:44.284Z,8.30
2022-12-23T15:49:46.718Z,8.30
2022-12-23T15:52:50.344Z,8.40
2022-12-23T15:55:53.621Z,8.40
2022-12-23T15:58:57.281Z,8.50
2022-12-23T16:02:32.139Z,8.40
2022-12-23T16:05:32.225Z,8.30
2022-12-23T16:08:34.942Z,8.20
2022-12-23T16:11:50.981Z,8.20
2022-12-23T16:14:55.702Z,8.30
2022-12-23T16:18:22.155Z,8.50
2022-12-23T16:21:30.153Z,8.80
2022-12-23T16:24:32.570Z,8.80
2022-12-23T16:27:44.892Z,9.00
2022-12-23T16:30:53.701Z,9.50
2022-12-23T16:33:58.257Z,9.60
2022-12-23T16:37:00.469Z,9.80
2022-12-23T16:40:13.115Z,9.70
2022-12-23T16:43:16.157Z,9.40
2022-12-23T16:46:20.889Z,9.10
2022-12-23T16:49:26.746Z,8.90
2022-12-23T16:52:34.096Z,8.90
2022-12-23T16:55:36.158Z,9.50
2022-12-23T16:58:38.927Z,10.20
2022-12-23T17:01:47.044Z,10.40
2022-12-23T17:04:49.356Z,10.40
2022-12-23T17:07:51.501Z,10.60
2022-12-23T17:10:59.052Z,10.70
2022-12-23T17:14:05.603Z,10.80
2022-12-23T17:17:15.748Z,10.80
2022-12-23T17:20:19.331Z,10.80
2022-12-23T17:23:26.395Z,10.90
2022-12-23T17:26:30.314Z,10.80
2022-12-23T17:29:32.388Z,11.00
2022-12-23T17:32:34.710Z,11.00
2022-12-23T17:35:36.916Z,10.70
2022-12-23T17:38:39.432Z,10.40
2022-12-23T17:41:42.521Z,10.30
2022-12-23T17:44:45.070Z,10.30
2022-12-23T17:47:47.228Z,10.20
2022-12-23T17:50:50.332Z,10.10
2022-12-23T17:53:58.142Z,10.20
2022-12-23T17:57:00.493Z,10.40
2022-12-23T18:00:03.228Z,10.60
2022-12-23T18:03:06.534Z,10.60
2022-12-23T18:06:17.208Z,10.70
2022-12-23T18:09:21.352Z,10.70
2022-12-23T18:12:26.281Z,10.70
2022-12-23T18:15:38.155Z,10.70
2022-12-23T18:18:46.315Z,10.80
2022-12-23T18:21:50.204Z,10.70
2022-12-23T18:24:58.966Z,10.70
2022-12-23T18:28:01.643Z,10.80
2022-12-23T18:31:05.498Z,10.70
2022-12-23T18:34:14.276Z,10.70
2022-12-23T18:37:17.195Z,10.70
2022-12-23T18:40:20.517Z,10.60
2022-12-23T18:43:25.097Z,10.60
2022-12-23T18:46:27.254Z,10.50
2022-12-23T18:49:29.433Z,10.50
2022-12-23T18:52:31.772Z,10.60
2022-12-23T18:55:34.470Z,10.50
2022-12-23T18:58:36.694Z,10.50
2022-12-23T19:01:38.976Z,10.50
2022-12-23T19:04:41.145Z,10.50
2022-12-23T19:07:43.694Z,10.60
2022-12-23T19:10:48.277Z,10.60
2022-12-23T19:13:50.659Z,10.60
2022-12-23T19:16:53.105Z,10.60
2022-12-23T19:19:55.304Z,10.50
2022-12-23T19:22:57.461Z,10.50
2022-12-23T19:25:59.582Z,10.50
2022-12-23T19:29:01.671Z,10.50
2022-12-23T19:32:04.079Z,10.50
2022-12-23T19:35:06.609Z,10.60
2022-12-23T19:38:08.799Z,10.50
2022-12-23T19:41:13.691Z,10.50
2022-12-23T19:44:15.831Z,10.40
2022-12-23T19:47:17.939Z,10.50
2022-12-23T19:50:22.406Z,10.50
2022-12-23T19:53:25.030Z,10.50
2022-12-23T19:56:29.342Z,10.50
2022-12-23T19:59:32.588Z,10.40
2022-12-23T20:02:35.223Z,10.50
2022-12-23T20:05:37.713Z,10.50
2022-12-23T20:08:40.748Z,10.50
2022-12-23T20:11:45.861Z,10.50
2022-12-23T20:14:48.092Z,10.40
2022-12-23T20:17:50.625Z,10.50
2022-12-23T20:20:55.318Z,10.50
2022-12-23T20:23:57.511Z,10.40
2022-12-23T20:27:00.445Z,10.40
2022-12-23T20:30:03.159Z,10.40
2022-12-23T20:33:06.191Z,10.40
2022-12-23T20:36:11.430Z,10.20
2022-12-23T20:39:14.118Z,10.10
2022-12-23T20:42:16.590Z,10.10
2022-12-23T20:45:19.135Z,10.10
2022-12-23T20:48:21.790Z,10.00
2022-12-23T20:51:25.087Z,10.10
2022-12-23T20:54:32.776Z,10.20
2022-12-23T20:57:36.042Z,10.20
2022-12-23T21:00:38.966Z,10.30
2022-12-23T21:03:41.618Z,10.20
2022-12-23T21:06:44.438Z,10.30
2022-12-23T21:09:46.734Z,10.30
2022-12-23T21:12:49.047Z,10.20
2022-12-23T21:15:51.199Z,10.30
2022-12-23T21:18:53.388Z,10.40
2022-12-23T21:21:56.641Z,10.30
2022-12-23T21:24:58.688Z,10.30
2022-12-23T21:28:00.908Z,10.20
2022-12-23T21:31:04.585Z,10.20
2022-12-23T21:34:07.460Z,10.30
2022-12-23T21:37:09.512Z,10.40
2022-12-23T21:40:12.468Z,10.40
2022-12-23T21:43:14.620Z,10.40
2022-12-23T21:46:18.925Z,10.50
2022-12-23T21:49:21.428Z,10.40
2022-12-23T21:52:23.690Z,10.50
2022-12-23T21:55:25.766Z,10.50
2022-12-23T21:58:27.931Z,10.50
2022-12-23T22:01:30.595Z,10.50
2022-12-23T22:04:32.698Z,10.50
2022-12-23T22:07:34.832Z,10.40
2022-12-23T22:10:40.277Z,10.40
2022-12-23T22:13:42.856Z,10.30
2022-12-23T22:16:45.193Z,10.20
2022-12-23T22:19:47.329Z,10.20
2022-12-23T22:22:49.761Z,10.30
2022-12-23T22:25:55.736Z,10.20
2022-12-23T22:29:01.203Z,10.30
2022-12-23T22:32:03.653Z,10.30
2022-12-23T22:35:06.120Z,10.40
2022-12-23T22:38:08.481Z,10.30
2022-12-23T22:41:11.307Z,10.30
2022-12-23T22:44:13.678Z,10.40
2022-12-23T22:47:15.964Z,10.40
2022-12-23T22:50:19.303Z,10.50
2022-12-23T22:53:26.328Z,10.50
2022-12-23T22:56:32.365Z,10.40
2022-12-23T22:59:34.518Z,10.50
2022-12-23T23:02:36.711Z,10.30
2022-12-23T23:05:38.940Z,10.40
2022-12-23T23:08:42.510Z,10.30
2022-12-23T23:11:44.748Z,10.40
2022-12-23T23:14:52.811Z,10.50
2022-12-23T23:17:56.242Z,10.60
2022-12-23T23:20:58.810Z,10.50
2022-12-23T23:24:00.887Z,10.50
2022-12-23T23:27:03.035Z,10.30
2022-12-23T23:30:06.532Z,10.40
2022-12-23T23:33:10.296Z,10.40
2022-12-23T23:36:12.434Z,10.40
2022-12-23T23:39:14.706Z,10.30
2022-12-23T23:42:17.882Z,10.30
2022-12-23T23:45:20.385Z,10.20
2022-12-23T23:48:22.699Z,10.30
2022-12-23T23:51:24.760Z,10.30
2022-12-23T23:54:27.216Z,10.20
2022-12-23T23:57:29.468Z,10.20
